Buoy 41997

sailwx.info

Track history (hours):
 
Tides and Currents Weather Stations Pressure Air Temp Water Temp Dewpoint Dewpoint Depression Visibility Wind Speed Wind Dir Waves Ship Positions

Drifting buoy 41997

Last reported at 2014-Jul-29 11:45 UTC. Time now 2014-Jul-29 12:45 UTC.
Position N 31°18' W 028°54'.

Water temperature 25.8 ° C

Date/timePositionNaut miles runAvg speedWind from/ knotsBaromVisibWave heightAir tempDewpointWater temp
2014-Jul-29 11:45N 31°18' W 028°54'0 0.0 25.8
2014-Jul-29 11:30N 31°18' W 028°54'0 0.0 25.7
2014-Jul-29 10:45N 31°18' W 028°54'0 0.0 25.7
2014-Jul-29 08:15N 31°18' W 028°54'0 0.0 25.7
2014-Jul-29 08:00N 31°18' W 028°54'0 0.6 25.7
2014-Jul-29 07:30N 31°18' W 028°54'0 0.4 25.7
2014-Jul-29 06:45N 31°18' W 028°54'1 3.7 25.8
2014-Jul-29 06:30N 31°18' W 028°53'1 0.5 25.8
2014-Jul-29 05:00N 31°18' W 028°52'0 0.0 25.9
2014-Jul-29 04:15N 31°18' W 028°52'0 1.9 25.8
2014-Jul-29 04:00N 31°17' W 028°52'0 0.0 25.8
2014-Jul-29 02:30N 31°17' W 028°52'0 0.0 25.9
2014-Jul-29 00:15N 31°17' W 028°52'0 0.0 25.9
2014-Jul-29 00:00N 31°17' W 028°52'1 0.7 25.9
2014-Jul-28 23:15N 31°17' W 028°52'1 0.9 25.9
2014-Jul-28 22:30N 31°18' W 028°51'1 0.4 26.0
2014-Jul-28 21:00N 31°18' W 028°51'0 0.0 26.1
2014-Jul-28 20:45N 31°18' W 028°51'0 0.3 26.1
2014-Jul-28 19:15N 31°18' W 028°51'0 0.0 26.3
2014-Jul-28 19:00N 31°18' W 028°51'0 0.0 26.4
2014-Jul-28 18:15N 31°18' W 028°51'0 0.0 26.4
2014-Jul-28 18:00N 31°18' W 028°51'0 0.6 26.4
2014-Jul-28 17:30N 31°18' W 028°51'1 0.6 26.3
2014-Jul-28 15:45N 31°19' W 028°51'0 0.0 26.4
2014-Jul-28 15:30N 31°19' W 028°51'1 0.4 26.4
2014-Jul-28 12:45N 31°20' W 028°52'0 0.0 26.1
2014-Jul-28 12:15N 31°20' W 028°52'0 1.0 26.0
2014-Jul-28 12:00N 31°20' W 028°53'1 1.2 25.9
2014-Jul-28 11:15N 31°20' W 028°54'0 0.0 25.8
2014-Jul-28 11:00N 31°20' W 028°54'1 0.4 25.8
2014-Jul-28 08:00N 31°19' W 028°54'0 0.3 25.8
2014-Jul-28 06:45N 31°19' W 028°54'0 0.0 25.8
2014-Jul-28 06:15N 31°19' W 028°54'0 0.0 25.8
2014-Jul-28 05:15N 31°19' W 028°54'1 2.3 25.9
2014-Jul-28 05:00N 31°19' W 028°53'1 0.7 25.9
2014-Jul-28 04:15N 31°19' W 028°52'0 0.0 25.9
2014-Jul-28 02:30N 31°19' W 028°52'0 0.0 25.9
2014-Jul-28 00:30N 31°19' W 028°52'0 0.0 25.9
2014-Jul-27 23:30N 31°19' W 028°52'0 0.0 26.0
2014-Jul-27 23:00N 31°19' W 028°52'0 0.8 26.0
2014-Jul-27 22:45N 31°19' W 028°52'0 0.0 26.0
2014-Jul-27 22:00N 31°19' W 028°52'0 0.0 26.1
2014-Jul-27 21:30N 31°19' W 028°52'0 1.0 26.1
2014-Jul-27 21:15N 31°19' W 028°52'0 0.3 26.1
2014-Jul-27 19:45N 31°19' W 028°51'0 0.0 26.2
2014-Jul-27 19:30N 31°19' W 028°51'0 0.0 26.2
2014-Jul-27 18:15N 31°19' W 028°51'0 0.5 26.2
2014-Jul-27 18:00N 31°19' W 028°52'0 0.0 26.2
2014-Jul-27 17:45N 31°19' W 028°52'1 1.1 26.2
2014-Jul-27 16:45N 31°19' W 028°50'0 0.0 26.3
2014-Jul-27 16:30N 31°19' W 028°50'1 1.2 26.3
2014-Jul-27 16:00N 31°20' W 028°50'0 0.0 26.2
2014-Jul-27 15:45N 31°20' W 028°50'1 0.8 26.3
2014-Jul-27 14:15N 31°21' W 028°50'0 0.0 26.2
2014-Jul-27 14:00N 31°21' W 028°50'1 0.6 26.2
2014-Jul-27 12:30N 31°22' W 028°51'1 3.6 25.9
2014-Jul-27 12:15N 31°22' W 028°52'2 2.4 25.9
2014-Jul-27 11:30N 31°21' W 028°54'0 0.2 25.7
2014-Jul-27 09:45N 31°21' W 028°54'0 0.0 25.5
2014-Jul-27 09:15N 31°21' W 028°54'0 0.0 25.5
2014-Jul-27 08:15N 31°21' W 028°54'0 0.3 25.5
2014-Jul-27 07:30N 31°21' W 028°54'0 0.7 25.6
2014-Jul-27 07:00N 31°21' W 028°54'0 0.2 25.7
2014-Jul-27 06:45N 31°21' W 028°54'0 0.5 25.7
2014-Jul-27 06:30N 31°21' W 028°54'0 0.1 25.8
2014-Jul-27 05:45N 31°21' W 028°54'0 0.0 25.8
2014-Jul-27 05:15N 31°21' W 028°54'2 2.3 25.9
2014-Jul-27 04:30N 31°21' W 028°52'0 0.0 25.9
2014-Jul-27 04:15N 31°21' W 028°52'0 0.0 25.9
2014-Jul-27 02:45N 31°21' W 028°52'0 0.1 25.9
2014-Jul-26 23:15N 31°21' W 028°52'0 0.9 26.0
2014-Jul-26 23:00N 31°21' W 028°52'0 0.8 26.1
2014-Jul-26 22:30N 31°21' W 028°51'1 2.3 26.1
2014-Jul-26 22:15N 31°20' W 028°52'0 0.0 26.2
2014-Jul-26 22:00N 31°20' W 028°52'0 0.9 26.2
2014-Jul-26 21:30N 31°20' W 028°51'0 0.0 26.0
2014-Jul-26 20:15N 31°20' W 028°51'0 0.0 26.4
2014-Jul-26 20:00N 31°20' W 028°51'1 0.4 26.5
2014-Jul-26 18:30N 31°21' W 028°50'0 0.0 26.9
2014-Jul-26 18:15N 31°21' W 028°50'0 0.3 26.9
2014-Jul-26 17:00N 31°21' W 028°50'0 0.0 26.8
2014-Jul-26 16:45N 31°21' W 028°50'1 0.9 26.8
2014-Jul-26 16:00N 31°22' W 028°50'2 1.4 27.0
2014-Jul-26 14:30N 31°24' W 028°50'0 0.0 26.2
2014-Jul-26 14:15N 31°24' W 028°50'2 0.7 26.1
2014-Jul-26 11:45N 31°24' W 028°52'0 0.2 25.4
2014-Jul-26 10:15N 31°23' W 028°52'0 0.0 25.2
2014-Jul-26 08:45N 31°23' W 028°52'0 0.0 25.2
2014-Jul-26 08:15N 31°23' W 028°52'0 0.0 25.1
2014-Jul-26 08:00N 31°23' W 028°52'1 0.5 25.2
2014-Jul-26 06:30N 31°23' W 028°53'0 0.0 24.8
2014-Jul-26 06:15N 31°23' W 028°53'1 1.3 24.8
2014-Jul-26 05:30N 31°22' W 028°53'0 0.0 25.2
2014-Jul-26 05:15N 31°22' W 028°53'0 0.0 25.3
2014-Jul-26 04:45N 31°22' W 028°53'312.7 25.3
2014-Jul-26 04:30N 31°21' W 028°49'0 0.0 25.3
2014-Jul-26 03:00N 31°21' W 028°49'1 0.3 25.3
2014-Jul-25 22:45N 31°22' W 028°48'0 0.2 25.2
2014-Jul-25 22:00N 31°22' W 028°48'1 2.2 25.2
2014-Jul-25 21:45N 31°23' W 028°49'1 1.2 25.2
2014-Jul-25 21:00N 31°22' W 028°48'0 0.0 25.3
2014-Jul-25 20:45N 31°22' W 028°48'2 1.2 25.3
2014-Jul-25 19:15N 31°23' W 028°49'0 0.0 25.3
2014-Jul-25 19:00N 31°23' W 028°49'0 0.0 25.3
2014-Jul-25 18:45N 31°23' W 028°49'1 0.4 25.3
2014-Jul-25 16:15N 31°24' W 028°50'1 3.9 25.3
2014-Jul-25 16:00N 31°23' W 028°49'1 0.7 25.3
2014-Jul-25 14:30N 31°24' W 028°50'1 0.5 25.3
2014-Jul-25 12:15N 31°25' W 028°50'1 1.3 25.1
2014-Jul-25 11:30N 31°26' W 028°51'0 0.0 25.0
2014-Jul-25 11:15N 31°26' W 028°51'2 3.0 25.0
2014-Jul-25 10:30N 31°24' W 028°52'0 0.1 25.0
2014-Jul-25 07:30N 31°24' W 028°53'0 0.5 25.1
2014-Jul-25 07:00N 31°24' W 028°53'0 0.0 25.1
2014-Jul-25 06:45N 31°24' W 028°53'1 1.3 25.2
2014-Jul-25 05:45N 31°23' W 028°53'0 0.0 25.2
2014-Jul-25 05:30N 31°23' W 028°53'0 0.0 25.2
2014-Jul-25 05:00N 31°23' W 028°53'1 5.0 25.3
2014-Jul-25 04:45N 31°23' W 028°52'0 0.0 25.3
2014-Jul-25 03:15N 31°23' W 028°52'0 0.0 25.3
2014-Jul-25 03:00N 31°23' W 028°52'0 0.0 25.3
2014-Jul-25 00:00N 31°23' W 028°52'0 0.0 25.6
2014-Jul-24 23:45N 31°23' W 028°52'1 1.5 25.7
2014-Jul-24 23:15N 31°23' W 028°51'0 0.0 25.7
2014-Jul-24 23:00N 31°23' W 028°51'1 0.8 25.7
2014-Jul-24 22:15N 31°24' W 028°52'0 0.0 25.8
2014-Jul-24 22:00N 31°24' W 028°52'0 0.0 25.8
2014-Jul-24 21:30N 31°24' W 028°52'0 0.7 25.7
2014-Jul-24 21:15N 31°24' W 028°52'0 0.3 25.7
2014-Jul-24 19:45N 31°24' W 028°52'0 0.0 25.9
2014-Jul-24 19:00N 31°24' W 028°52'0 0.0 26.0
2014-Jul-24 18:45N 31°24' W 028°52'1 0.6 26.0
2014-Jul-24 17:30N 31°24' W 028°52'0 1.3 26.0
2014-Jul-24 17:15N 31°24' W 028°52'0 0.3 25.9
2014-Jul-24 16:30N 31°25' W 028°52'0 1.0 25.9
2014-Jul-24 16:15N 31°24' W 028°52'0 0.2 25.9
2014-Jul-24 14:45N 31°25' W 028°52'1 0.3 25.9
2014-Jul-24 12:30N 31°25' W 028°52'1 0.7 25.8
2014-Jul-24 11:45N 31°26' W 028°53'1 2.0 25.4
2014-Jul-24 11:00N 31°25' W 028°54'0 0.0 25.2
2014-Jul-24 10:45N 31°25' W 028°54'1 0.4 25.2
2014-Jul-24 09:15N 31°25' W 028°54'0 0.0 25.0
2014-Jul-24 09:00N 31°25' W 028°54'0 0.0 25.0
2014-Jul-24 07:45N 31°25' W 028°54'0 1.9 25.0
2014-Jul-24 07:30N 31°25' W 028°53'0 1.0 25.0
2014-Jul-24 07:15N 31°25' W 028°53'0 0.1 25.1
2014-Jul-24 06:15N 31°25' W 028°53'0 0.0 25.2
2014-Jul-24 06:00N 31°25' W 028°53'0 1.4 25.2
2014-Jul-24 05:45N 31°24' W 028°53'0 0.0 25.2
2014-Jul-24 05:00N 31°24' W 028°53'0 0.3 25.3
2014-Jul-24 03:30N 31°25' W 028°53'311.5 25.4
2014-Jul-24 03:15N 31°26' W 028°50'0 0.0 25.4
2014-Jul-24 00:15N 31°26' W 028°50'0 0.0 25.4
2014-Jul-23 23:30N 31°26' W 028°50'0 0.0 25.5
2014-Jul-23 23:15N 31°26' W 028°50'1 1.3 25.5
2014-Jul-23 22:30N 31°27' W 028°51'1 0.3 25.6
2014-Jul-23 20:15N 31°27' W 028°52'0 0.0 26.4
2014-Jul-23 18:30N 31°27' W 028°52'0 0.2 27.5
2014-Jul-23 18:00N 31°27' W 028°52'0 0.0 27.6
2014-Jul-23 17:45N 31°27' W 028°52'0 0.0 27.5
2014-Jul-23 17:30N 31°27' W 028°52'0 0.0 27.2
2014-Jul-23 17:15N 31°27' W 028°52'0 0.2 27.3
2014-Jul-23 16:30N 31°27' W 028°52'0 0.2 27.4
2014-Jul-23 15:00N 31°28' W 028°51'0 0.0 26.8
2014-Jul-23 14:45N 31°28' W 028°51'1 0.6 26.9
2014-Jul-23 13:00N 31°29' W 028°52'1 2.8 25.6
2014-Jul-23 12:45N 31°28' W 028°51'0 0.1 25.6
2014-Jul-23 12:15N 31°28' W 028°51'0 0.0 25.3
2014-Jul-23 12:00N 31°28' W 028°51'1 1.4 25.2
2014-Jul-23 11:15N 31°27' W 028°52'0 0.1 24.9
2014-Jul-23 08:15N 31°27' W 028°52'0 0.9 24.6
2014-Jul-23 08:00N 31°27' W 028°52'1 3.3 24.6
2014-Jul-23 07:45N 31°26' W 028°51'0 0.0 24.6
2014-Jul-23 07:30N 31°26' W 028°51'0 0.0 24.6
2014-Jul-23 06:45N 31°26' W 028°51'0 0.7 24.7
2014-Jul-23 06:15N 31°26' W 028°51'0 1.7 24.7
2014-Jul-23 06:00N 31°25' W 028°51'1 1.5 24.7
2014-Jul-23 05:15N 31°25' W 028°50'4 2.2 24.8
2014-Jul-23 03:30N 31°27' W 028°46'0 0.0 24.8
2014-Jul-22 23:45N 31°27' W 028°46'1 0.8 25.0
2014-Jul-22 23:00N 31°27' W 028°46'0 0.0 25.1
2014-Jul-22 22:45N 31°27' W 028°46'0 0.0 25.1
2014-Jul-22 22:15N 31°27' W 028°46'1 3.2 25.1
2014-Jul-22 22:00N 31°28' W 028°45'0 0.0 25.1
2014-Jul-22 20:45N 31°28' W 028°45'0 0.2 25.1
2014-Jul-22 19:15N 31°28' W 028°45'0 0.0 25.2
2014-Jul-22 19:00N 31°28' W 028°45'0 0.0 25.2
2014-Jul-22 18:30N 31°28' W 028°45'0 0.0 25.2
2014-Jul-22 18:15N 31°28' W 028°45'0 0.5 25.3
2014-Jul-22 17:45N 31°28' W 028°45'0 0.0 25.3
2014-Jul-22 17:30N 31°28' W 028°45'2 2.3 25.3
2014-Jul-22 16:45N 31°30' W 028°44'0 0.0 25.3
2014-Jul-22 15:15N 31°30' W 028°44'0 0.0 25.2
2014-Jul-22 15:00N 31°30' W 028°44'2 0.9 25.1
2014-Jul-22 12:30N 31°32' W 028°45'0 0.0 24.8
2014-Jul-22 12:15N 31°32' W 028°45'0 0.0 24.8
2014-Jul-22 11:45N 31°32' W 028°45'0 0.0 24.7
2014-Jul-22 11:30N 31°32' W 028°45'0 0.0 24.6
2014-Jul-22 10:45N 31°32' W 028°45'0 0.0 24.6
2014-Jul-22 08:45N 31°32' W 028°45'0 0.4 24.6
2014-Jul-22 08:00N 31°32' W 028°45'0 0.0 24.6
2014-Jul-22 07:45N 31°32' W 028°45'0 0.3 24.6
2014-Jul-22 07:00N 31°32' W 028°45'0 0.7 24.7
2014-Jul-22 06:45N 31°32' W 028°45'0 1.0 24.7
2014-Jul-22 06:15N 31°32' W 028°45'0 0.0 24.7
2014-Jul-22 06:00N 31°32' W 028°45'0 0.6 24.7
2014-Jul-22 05:30N 31°32' W 028°44'0 0.0 24.7
2014-Jul-22 05:15N 31°32' W 028°44'0 0.1 24.8
2014-Jul-22 03:45N 31°32' W 028°44'1 2.7 24.8
2014-Jul-22 03:30N 31°32' W 028°44'0 0.1 24.8
2014-Jul-21 23:15N 31°32' W 028°43'1 1.1 24.9
2014-Jul-21 22:30N 31°33' W 028°42'1 4.0 24.9
2014-Jul-21 22:15N 31°32' W 028°43'0 0.0 24.9
2014-Jul-21 21:15N 31°32' W 028°43'2 0.7 25.0
2014-Jul-21 18:45N 31°33' W 028°41'2 2.4 25.1
2014-Jul-21 17:45N 31°35' W 028°40'0 0.0 25.2
2014-Jul-21 15:15N 31°35' W 028°40'2 0.7 25.3
2014-Jul-21 12:00N 31°37' W 028°41'0 0.0 24.8
2014-Jul-21 11:45N 31°37' W 028°41'0 0.0 24.8
2014-Jul-21 11:15N 31°37' W 028°41'2 7.0 24.7
2014-Jul-21 11:00N 31°37' W 028°43'0 0.0 24.6
2014-Jul-21 10:15N 31°37' W 028°43'1 0.5 24.6
2014-Jul-21 09:00N 31°37' W 028°43'0 0.2 24.5
2014-Jul-21 07:30N 31°37' W 028°43'1 3.7 24.5
2014-Jul-21 07:15N 31°36' W 028°42'0 0.0 24.5
2014-Jul-21 06:30N 31°36' W 028°42'0 0.0 24.5
2014-Jul-21 06:15N 31°36' W 028°42'0 0.1 24.5
2014-Jul-21 05:30N 31°36' W 028°42'0 0.0 24.5
2014-Jul-21 04:45N 31°36' W 028°42'0 0.1 24.5
2014-Jul-21 04:00N 31°36' W 028°42'2 6.4 24.5
2014-Jul-21 03:45N 31°38' W 028°41'1 0.2 24.5
2014-Jul-20 22:45N 31°39' W 028°40'1 0.7 24.7
2014-Jul-20 22:00N 31°39' W 028°41'0 0.0 24.7
2014-Jul-20 21:45N 31°39' W 028°41'0 0.2 24.8
2014-Jul-20 20:00N 31°39' W 028°40'0 0.0 24.9
2014-Jul-20 19:15N 31°39' W 028°40'0 1.1 25.0
2014-Jul-20 19:00N 31°39' W 028°40'0 0.0 25.0
2014-Jul-20 18:30N 31°39' W 028°40'0 0.0 25.0
2014-Jul-20 18:00N 31°39' W 028°40'0 0.0 25.0
2014-Jul-20 17:45N 31°39' W 028°40'1 4.9 25.1
2014-Jul-20 17:30N 31°40' W 028°40'0 0.0 25.1
2014-Jul-20 15:30N 31°40' W 028°40'0 0.0 24.9
2014-Jul-20 15:15N 31°40' W 028°40'2 1.7 24.9
2014-Jul-20 13:45N 31°43' W 028°40'1 0.3 24.7
2014-Jul-20 12:15N 31°43' W 028°41'0 0.4 24.5
2014-Jul-20 11:30N 31°43' W 028°41'1 1.1 24.4
2014-Jul-20 10:45N 31°44' W 028°41'1 4.8 24.4
2014-Jul-20 10:30N 31°44' W 028°42'0 0.1 24.4
2014-Jul-20 08:00N 31°43' W 028°43'0 0.0 24.4
2014-Jul-20 07:45N 31°43' W 028°43'0 0.2 24.4
2014-Jul-20 06:45N 31°43' W 028°43'0 0.9 24.4
2014-Jul-20 06:15N 31°43' W 028°42'0 0.0 24.4
2014-Jul-20 05:45N 31°43' W 028°42'0 0.0 24.4
2014-Jul-20 04:15N 31°43' W 028°42'2 7.8 24.5
2014-Jul-20 04:00N 31°44' W 028°41'0 0.0 24.5
2014-Jul-20 00:00N 31°44' W 028°41'0 0.0 24.6
2014-Jul-19 23:45N 31°44' W 028°41'1 1.3 24.6
2014-Jul-19 23:15N 31°45' W 028°40'1 2.6 24.6
2014-Jul-19 23:00N 31°45' W 028°40'3 3.4 24.6
2014-Jul-19 22:15N 31°47' W 028°39'0 0.0 24.6
2014-Jul-19 20:30N 31°47' W 028°39'0 0.0 24.8
2014-Jul-19 19:00N 31°47' W 028°39'0 0.1 24.8
2014-Jul-19 18:15N 31°47' W 028°39'1 0.8 24.9
2014-Jul-19 16:30N 31°49' W 028°38'1 1.8 24.9
2014-Jul-19 15:45N 31°50' W 028°38'0 0.0 24.9
2014-Jul-19 15:30N 31°50' W 028°38'3 1.0 24.9
2014-Jul-19 12:30N 31°53' W 028°40'0 0.0 24.7
2014-Jul-19 12:00N 31°53' W 028°40'0 0.5 24.7
2014-Jul-19 11:45N 31°53' W 028°40'   24.7
Track history (hours):
 
Tides and Currents Weather Stations Pressure Air Temp Water Temp Dewpoint Dewpoint Depression Visibility Wind Speed Wind Dir Waves Ship Positions

Drifting buoy 41997

Last reported at 2014-Jul-29 11:45 UTC. Time now 2014-Jul-29 12:45 UTC.
Position N 31°18' W 028°54'.

Water temperature 25.8 ° C

Date/timePositionNaut miles runAvg speedWind from/ knotsBaromVisibWave heightAir tempDewpointWater temp
2014-Jul-29 11:45N 31°18' W 028°54'0 0.0 25.8
2014-Jul-29 11:30N 31°18' W 028°54'0 0.0 25.7
2014-Jul-29 10:45N 31°18' W 028°54'0 0.0 25.7
2014-Jul-29 08:15N 31°18' W 028°54'0 0.0 25.7
2014-Jul-29 08:00N 31°18' W 028°54'0 0.6 25.7
2014-Jul-29 07:30N 31°18' W 028°54'0 0.4 25.7
2014-Jul-29 06:45N 31°18' W 028°54'1 3.7 25.8
2014-Jul-29 06:30N 31°18' W 028°53'1 0.5 25.8
2014-Jul-29 05:00N 31°18' W 028°52'0 0.0 25.9
2014-Jul-29 04:15N 31°18' W 028°52'0 1.9 25.8
2014-Jul-29 04:00N 31°17' W 028°52'0 0.0 25.8
2014-Jul-29 02:30N 31°17' W 028°52'0 0.0 25.9
2014-Jul-29 00:15N 31°17' W 028°52'0 0.0 25.9
2014-Jul-29 00:00N 31°17' W 028°52'1 0.7 25.9
2014-Jul-28 23:15N 31°17' W 028°52'1 0.9 25.9
2014-Jul-28 22:30N 31°18' W 028°51'1 0.4 26.0
2014-Jul-28 21:00N 31°18' W 028°51'0 0.0 26.1
2014-Jul-28 20:45N 31°18' W 028°51'0 0.3 26.1
2014-Jul-28 19:15N 31°18' W 028°51'0 0.0 26.3
2014-Jul-28 19:00N 31°18' W 028°51'0 0.0 26.4
2014-Jul-28 18:15N 31°18' W 028°51'0 0.0 26.4
2014-Jul-28 18:00N 31°18' W 028°51'0 0.6 26.4
2014-Jul-28 17:30N 31°18' W 028°51'1 0.6 26.3
2014-Jul-28 15:45N 31°19' W 028°51'0 0.0 26.4
2014-Jul-28 15:30N 31°19' W 028°51'1 0.4 26.4
2014-Jul-28 12:45N 31°20' W 028°52'0 0.0 26.1
2014-Jul-28 12:15N 31°20' W 028°52'0 1.0 26.0
2014-Jul-28 12:00N 31°20' W 028°53'1 1.2 25.9
2014-Jul-28 11:15N 31°20' W 028°54'0 0.0 25.8
2014-Jul-28 11:00N 31°20' W 028°54'1 0.4 25.8
2014-Jul-28 08:00N 31°19' W 028°54'0 0.3 25.8
2014-Jul-28 06:45N 31°19' W 028°54'0 0.0 25.8
2014-Jul-28 06:15N 31°19' W 028°54'0 0.0 25.8
2014-Jul-28 05:15N 31°19' W 028°54'1 2.3 25.9
2014-Jul-28 05:00N 31°19' W 028°53'1 0.7 25.9
2014-Jul-28 04:15N 31°19' W 028°52'0 0.0 25.9
2014-Jul-28 02:30N 31°19' W 028°52'0 0.0 25.9
2014-Jul-28 00:30N 31°19' W 028°52'0 0.0 25.9
2014-Jul-27 23:30N 31°19' W 028°52'0 0.0 26.0
2014-Jul-27 23:00N 31°19' W 028°52'0 0.8 26.0
2014-Jul-27 22:45N 31°19' W 028°52'0 0.0 26.0
2014-Jul-27 22:00N 31°19' W 028°52'0 0.0 26.1
2014-Jul-27 21:30N 31°19' W 028°52'0 1.0 26.1
2014-Jul-27 21:15N 31°19' W 028°52'0 0.3 26.1
2014-Jul-27 19:45N 31°19' W 028°51'0 0.0 26.2
2014-Jul-27 19:30N 31°19' W 028°51'0 0.0 26.2
2014-Jul-27 18:15N 31°19' W 028°51'0 0.5 26.2
2014-Jul-27 18:00N 31°19' W 028°52'0 0.0 26.2
2014-Jul-27 17:45N 31°19' W 028°52'1 1.1 26.2
2014-Jul-27 16:45N 31°19' W 028°50'0 0.0 26.3
2014-Jul-27 16:30N 31°19' W 028°50'1 1.2 26.3
2014-Jul-27 16:00N 31°20' W 028°50'0 0.0 26.2
2014-Jul-27 15:45N 31°20' W 028°50'1 0.8 26.3
2014-Jul-27 14:15N 31°21' W 028°50'0 0.0 26.2
2014-Jul-27 14:00N 31°21' W 028°50'1 0.6 26.2
2014-Jul-27 12:30N 31°22' W 028°51'1 3.6 25.9
2014-Jul-27 12:15N 31°22' W 028°52'2 2.4 25.9
2014-Jul-27 11:30N 31°21' W 028°54'0 0.2 25.7
2014-Jul-27 09:45N 31°21' W 028°54'0 0.0 25.5
2014-Jul-27 09:15N 31°21' W 028°54'0 0.0 25.5
2014-Jul-27 08:15N 31°21' W 028°54'0 0.3 25.5
2014-Jul-27 07:30N 31°21' W 028°54'0 0.7 25.6
2014-Jul-27 07:00N 31°21' W 028°54'0 0.2 25.7
2014-Jul-27 06:45N 31°21' W 028°54'0 0.5 25.7
2014-Jul-27 06:30N 31°21' W 028°54'0 0.1 25.8
2014-Jul-27 05:45N 31°21' W 028°54'0 0.0 25.8
2014-Jul-27 05:15N 31°21' W 028°54'2 2.3 25.9
2014-Jul-27 04:30N 31°21' W 028°52'0 0.0 25.9
2014-Jul-27 04:15N 31°21' W 028°52'0 0.0 25.9
2014-Jul-27 02:45N 31°21' W 028°52'0 0.1 25.9
2014-Jul-26 23:15N 31°21' W 028°52'0 0.9 26.0
2014-Jul-26 23:00N 31°21' W 028°52'0 0.8 26.1
2014-Jul-26 22:30N 31°21' W 028°51'1 2.3 26.1
2014-Jul-26 22:15N 31°20' W 028°52'0 0.0 26.2
2014-Jul-26 22:00N 31°20' W 028°52'0 0.9 26.2
2014-Jul-26 21:30N 31°20' W 028°51'0 0.0 26.0
2014-Jul-26 20:15N 31°20' W 028°51'0 0.0 26.4
2014-Jul-26 20:00N 31°20' W 028°51'1 0.4 26.5
2014-Jul-26 18:30N 31°21' W 028°50'0 0.0 26.9
2014-Jul-26 18:15N 31°21' W 028°50'0 0.3 26.9
2014-Jul-26 17:00N 31°21' W 028°50'0 0.0 26.8
2014-Jul-26 16:45N 31°21' W 028°50'1 0.9 26.8
2014-Jul-26 16:00N 31°22' W 028°50'2 1.4 27.0
2014-Jul-26 14:30N 31°24' W 028°50'0 0.0 26.2
2014-Jul-26 14:15N 31°24' W 028°50'2 0.7 26.1
2014-Jul-26 11:45N 31°24' W 028°52'0 0.2 25.4
2014-Jul-26 10:15N 31°23' W 028°52'0 0.0 25.2
2014-Jul-26 08:45N 31°23' W 028°52'0 0.0 25.2
2014-Jul-26 08:15N 31°23' W 028°52'0 0.0 25.1
2014-Jul-26 08:00N 31°23' W 028°52'1 0.5 25.2
2014-Jul-26 06:30N 31°23' W 028°53'0 0.0 24.8
2014-Jul-26 06:15N 31°23' W 028°53'1 1.3 24.8
2014-Jul-26 05:30N 31°22' W 028°53'0 0.0 25.2
2014-Jul-26 05:15N 31°22' W 028°53'0 0.0 25.3
2014-Jul-26 04:45N 31°22' W 028°53'312.7 25.3
2014-Jul-26 04:30N 31°21' W 028°49'0 0.0 25.3
2014-Jul-26 03:00N 31°21' W 028°49'1 0.3 25.3
2014-Jul-25 22:45N 31°22' W 028°48'0 0.2 25.2
2014-Jul-25 22:00N 31°22' W 028°48'1 2.2 25.2
2014-Jul-25 21:45N 31°23' W 028°49'1 1.2 25.2
2014-Jul-25 21:00N 31°22' W 028°48'0 0.0 25.3
2014-Jul-25 20:45N 31°22' W 028°48'2 1.2 25.3
2014-Jul-25 19:15N 31°23' W 028°49'0 0.0 25.3
2014-Jul-25 19:00N 31°23' W 028°49'0 0.0 25.3
2014-Jul-25 18:45N 31°23' W 028°49'1 0.4 25.3
2014-Jul-25 16:15N 31°24' W 028°50'1 3.9 25.3
2014-Jul-25 16:00N 31°23' W 028°49'1 0.7 25.3
2014-Jul-25 14:30N 31°24' W 028°50'1 0.5 25.3
2014-Jul-25 12:15N 31°25' W 028°50'1 1.3 25.1
2014-Jul-25 11:30N 31°26' W 028°51'0 0.0 25.0
2014-Jul-25 11:15N 31°26' W 028°51'2 3.0 25.0
2014-Jul-25 10:30N 31°24' W 028°52'0 0.1 25.0
2014-Jul-25 07:30N 31°24' W 028°53'0 0.5 25.1
2014-Jul-25 07:00N 31°24' W 028°53'0 0.0 25.1
2014-Jul-25 06:45N 31°24' W 028°53'1 1.3 25.2
2014-Jul-25 05:45N 31°23' W 028°53'0 0.0 25.2
2014-Jul-25 05:30N 31°23' W 028°53'0 0.0 25.2
2014-Jul-25 05:00N 31°23' W 028°53'1 5.0 25.3
2014-Jul-25 04:45N 31°23' W 028°52'0 0.0 25.3
2014-Jul-25 03:15N 31°23' W 028°52'0 0.0 25.3
2014-Jul-25 03:00N 31°23' W 028°52'0 0.0 25.3
2014-Jul-25 00:00N 31°23' W 028°52'0 0.0 25.6
2014-Jul-24 23:45N 31°23' W 028°52'1 1.5 25.7
2014-Jul-24 23:15N 31°23' W 028°51'0 0.0 25.7
2014-Jul-24 23:00N 31°23' W 028°51'1 0.8 25.7
2014-Jul-24 22:15N 31°24' W 028°52'0 0.0 25.8
2014-Jul-24 22:00N 31°24' W 028°52'0 0.0 25.8
2014-Jul-24 21:30N 31°24' W 028°52'0 0.7 25.7
2014-Jul-24 21:15N 31°24' W 028°52'0 0.3 25.7
2014-Jul-24 19:45N 31°24' W 028°52'0 0.0 25.9
2014-Jul-24 19:00N 31°24' W 028°52'0 0.0 26.0
2014-Jul-24 18:45N 31°24' W 028°52'1 0.6 26.0
2014-Jul-24 17:30N 31°24' W 028°52'0 1.3 26.0
2014-Jul-24 17:15N 31°24' W 028°52'0 0.3 25.9
2014-Jul-24 16:30N 31°25' W 028°52'0 1.0 25.9
2014-Jul-24 16:15N 31°24' W 028°52'0 0.2 25.9
2014-Jul-24 14:45N 31°25' W 028°52'1 0.3 25.9
2014-Jul-24 12:30N 31°25' W 028°52'1 0.7 25.8
2014-Jul-24 11:45N 31°26' W 028°53'1 2.0 25.4
2014-Jul-24 11:00N 31°25' W 028°54'0 0.0 25.2
2014-Jul-24 10:45N 31°25' W 028°54'1 0.4 25.2
2014-Jul-24 09:15N 31°25' W 028°54'0 0.0 25.0
2014-Jul-24 09:00N 31°25' W 028°54'0 0.0 25.0
2014-Jul-24 07:45N 31°25' W 028°54'0 1.9 25.0
2014-Jul-24 07:30N 31°25' W 028°53'0 1.0 25.0
2014-Jul-24 07:15N 31°25' W 028°53'0 0.1 25.1
2014-Jul-24 06:15N 31°25' W 028°53'0 0.0 25.2
2014-Jul-24 06:00N 31°25' W 028°53'0 1.4 25.2
2014-Jul-24 05:45N 31°24' W 028°53'0 0.0 25.2
2014-Jul-24 05:00N 31°24' W 028°53'0 0.3 25.3
2014-Jul-24 03:30N 31°25' W 028°53'311.5 25.4
2014-Jul-24 03:15N 31°26' W 028°50'0 0.0 25.4
2014-Jul-24 00:15N 31°26' W 028°50'0 0.0 25.4
2014-Jul-23 23:30N 31°26' W 028°50'0 0.0 25.5
2014-Jul-23 23:15N 31°26' W 028°50'1 1.3 25.5
2014-Jul-23 22:30N 31°27' W 028°51'1 0.3 25.6
2014-Jul-23 20:15N 31°27' W 028°52'0 0.0 26.4
2014-Jul-23 18:30N 31°27' W 028°52'0 0.2 27.5
2014-Jul-23 18:00N 31°27' W 028°52'0 0.0 27.6
2014-Jul-23 17:45N 31°27' W 028°52'0 0.0 27.5
2014-Jul-23 17:30N 31°27' W 028°52'0 0.0 27.2
2014-Jul-23 17:15N 31°27' W 028°52'0 0.2 27.3
2014-Jul-23 16:30N 31°27' W 028°52'0 0.2 27.4
2014-Jul-23 15:00N 31°28' W 028°51'0 0.0 26.8
2014-Jul-23 14:45N 31°28' W 028°51'1 0.6 26.9
2014-Jul-23 13:00N 31°29' W 028°52'1 2.8 25.6
2014-Jul-23 12:45N 31°28' W 028°51'0 0.1 25.6
2014-Jul-23 12:15N 31°28' W 028°51'0 0.0 25.3
2014-Jul-23 12:00N 31°28' W 028°51'1 1.4 25.2
2014-Jul-23 11:15N 31°27' W 028°52'0 0.1 24.9
2014-Jul-23 08:15N 31°27' W 028°52'0 0.9 24.6
2014-Jul-23 08:00N 31°27' W 028°52'1 3.3 24.6
2014-Jul-23 07:45N 31°26' W 028°51'0 0.0 24.6
2014-Jul-23 07:30N 31°26' W 028°51'0 0.0 24.6
2014-Jul-23 06:45N 31°26' W 028°51'0 0.7 24.7
2014-Jul-23 06:15N 31°26' W 028°51'0 1.7 24.7
2014-Jul-23 06:00N 31°25' W 028°51'1 1.5 24.7
2014-Jul-23 05:15N 31°25' W 028°50'4 2.2 24.8
2014-Jul-23 03:30N 31°27' W 028°46'0 0.0 24.8
2014-Jul-22 23:45N 31°27' W 028°46'1 0.8 25.0
2014-Jul-22 23:00N 31°27' W 028°46'0 0.0 25.1
2014-Jul-22 22:45N 31°27' W 028°46'0 0.0 25.1
2014-Jul-22 22:15N 31°27' W 028°46'1 3.2 25.1
2014-Jul-22 22:00N 31°28' W 028°45'0 0.0 25.1
2014-Jul-22 20:45N 31°28' W 028°45'0 0.2 25.1
2014-Jul-22 19:15N 31°28' W 028°45'0 0.0 25.2
2014-Jul-22 19:00N 31°28' W 028°45'0 0.0 25.2
2014-Jul-22 18:30N 31°28' W 028°45'0 0.0 25.2
2014-Jul-22 18:15N 31°28' W 028°45'0 0.5 25.3
2014-Jul-22 17:45N 31°28' W 028°45'0 0.0 25.3
2014-Jul-22 17:30N 31°28' W 028°45'2 2.3 25.3
2014-Jul-22 16:45N 31°30' W 028°44'0 0.0 25.3
2014-Jul-22 15:15N 31°30' W 028°44'0 0.0 25.2
2014-Jul-22 15:00N 31°30' W 028°44'2 0.9 25.1
2014-Jul-22 12:30N 31°32' W 028°45'0 0.0 24.8
2014-Jul-22 12:15N 31°32' W 028°45'0 0.0 24.8
2014-Jul-22 11:45N 31°32' W 028°45'0 0.0 24.7
2014-Jul-22 11:30N 31°32' W 028°45'0 0.0 24.6
2014-Jul-22 10:45N 31°32' W 028°45'0 0.0 24.6
2014-Jul-22 08:45N 31°32' W 028°45'0 0.4 24.6
2014-Jul-22 08:00N 31°32' W 028°45'0 0.0 24.6
2014-Jul-22 07:45N 31°32' W 028°45'0 0.3 24.6
2014-Jul-22 07:00N 31°32' W 028°45'0 0.7 24.7
2014-Jul-22 06:45N 31°32' W 028°45'0 1.0 24.7
2014-Jul-22 06:15N 31°32' W 028°45'0 0.0 24.7
2014-Jul-22 06:00N 31°32' W 028°45'0 0.6 24.7
2014-Jul-22 05:30N 31°32' W 028°44'0 0.0 24.7
2014-Jul-22 05:15N 31°32' W 028°44'0 0.1 24.8
2014-Jul-22 03:45N 31°32' W 028°44'1 2.7 24.8
2014-Jul-22 03:30N 31°32' W 028°44'0 0.1 24.8
2014-Jul-21 23:15N 31°32' W 028°43'1 1.1 24.9
2014-Jul-21 22:30N 31°33' W 028°42'1 4.0 24.9
2014-Jul-21 22:15N 31°32' W 028°43'0 0.0 24.9
2014-Jul-21 21:15N 31°32' W 028°43'2 0.7 25.0
2014-Jul-21 18:45N 31°33' W 028°41'2 2.4 25.1
2014-Jul-21 17:45N 31°35' W 028°40'0 0.0 25.2
2014-Jul-21 15:15N 31°35' W 028°40'2 0.7 25.3
2014-Jul-21 12:00N 31°37' W 028°41'0 0.0 24.8
2014-Jul-21 11:45N 31°37' W 028°41'0 0.0 24.8
2014-Jul-21 11:15N 31°37' W 028°41'2 7.0 24.7
2014-Jul-21 11:00N 31°37' W 028°43'0 0.0 24.6
2014-Jul-21 10:15N 31°37' W 028°43'1 0.5 24.6
2014-Jul-21 09:00N 31°37' W 028°43'0 0.2 24.5
2014-Jul-21 07:30N 31°37' W 028°43'1 3.7 24.5
2014-Jul-21 07:15N 31°36' W 028°42'0 0.0 24.5
2014-Jul-21 06:30N 31°36' W 028°42'0 0.0 24.5
2014-Jul-21 06:15N 31°36' W 028°42'0 0.1 24.5
2014-Jul-21 05:30N 31°36' W 028°42'0 0.0 24.5
2014-Jul-21 04:45N 31°36' W 028°42'0 0.1 24.5
2014-Jul-21 04:00N 31°36' W 028°42'2 6.4 24.5
2014-Jul-21 03:45N 31°38' W 028°41'1 0.2 24.5
2014-Jul-20 22:45N 31°39' W 028°40'1 0.7 24.7
2014-Jul-20 22:00N 31°39' W 028°41'0 0.0 24.7
2014-Jul-20 21:45N 31°39' W 028°41'0 0.2 24.8
2014-Jul-20 20:00N 31°39' W 028°40'0 0.0 24.9
2014-Jul-20 19:15N 31°39' W 028°40'0 1.1 25.0
2014-Jul-20 19:00N 31°39' W 028°40'0 0.0 25.0
2014-Jul-20 18:30N 31°39' W 028°40'0 0.0 25.0
2014-Jul-20 18:00N 31°39' W 028°40'0 0.0 25.0
2014-Jul-20 17:45N 31°39' W 028°40'1 4.9 25.1
2014-Jul-20 17:30N 31°40' W 028°40'0 0.0 25.1
2014-Jul-20 15:30N 31°40' W 028°40'0 0.0 24.9
2014-Jul-20 15:15N 31°40' W 028°40'2 1.7 24.9
2014-Jul-20 13:45N 31°43' W 028°40'1 0.3 24.7
2014-Jul-20 12:15N 31°43' W 028°41'0 0.4 24.5
2014-Jul-20 11:30N 31°43' W 028°41'1 1.1 24.4
2014-Jul-20 10:45N 31°44' W 028°41'1 4.8 24.4
2014-Jul-20 10:30N 31°44' W 028°42'0 0.1 24.4
2014-Jul-20 08:00N 31°43' W 028°43'0 0.0 24.4
2014-Jul-20 07:45N 31°43' W 028°43'0 0.2 24.4
2014-Jul-20 06:45N 31°43' W 028°43'0 0.9 24.4
2014-Jul-20 06:15N 31°43' W 028°42'0 0.0 24.4
2014-Jul-20 05:45N 31°43' W 028°42'0 0.0 24.4
2014-Jul-20 04:15N 31°43' W 028°42'2 7.8 24.5
2014-Jul-20 04:00N 31°44' W 028°41'0 0.0 24.5
2014-Jul-20 00:00N 31°44' W 028°41'0 0.0 24.6
2014-Jul-19 23:45N 31°44' W 028°41'1 1.3 24.6
2014-Jul-19 23:15N 31°45' W 028°40'1 2.6 24.6
2014-Jul-19 23:00N 31°45' W 028°40'3 3.4 24.6
2014-Jul-19 22:15N 31°47' W 028°39'0 0.0 24.6
2014-Jul-19 20:30N 31°47' W 028°39'0 0.0 24.8
2014-Jul-19 19:00N 31°47' W 028°39'0 0.1 24.8
2014-Jul-19 18:15N 31°47' W 028°39'1 0.8 24.9
2014-Jul-19 16:30N 31°49' W 028°38'1 1.8 24.9
2014-Jul-19 15:45N 31°50' W 028°38'0 0.0 24.9
2014-Jul-19 15:30N 31°50' W 028°38'3 1.0 24.9
2014-Jul-19 12:30N 31°53' W 028°40'0 0.0 24.7
2014-Jul-19 12:00N 31°53' W 028°40'0 0.5 24.7
2014-Jul-19 11:45N 31°53' W 028°40'   24.7

Dump ship's entire track history